Terminal Aerodrome Forecast
Issued by NWS Milwaukee/Sullivan, WI

Home | Current Version | Previous Version | Text Only | Print | Product List | Glossary On
Versions: 1 2 3 4 5 6 7 8 9 10 11 12 13 14 15 16 17 18 19 20 21 22 23 24 25 26 27 28 29 30 31 32 33 34 35 36 37 38 39 40 41 42 43 44 45 46 47 48 49 50
000
FTUS43 KMKX 292159 AAC
TAFMKE
TAF AMD
KMKE 292159Z 2922/3024 04006KT 1/2SM FG VV002
      TEMPO 2922/2924 1/4SM FG VV001
     FM300100 00000KT 1SM BR OVC004
      TEMPO 3009/3012 3/4SM BR
     FM301200 06003KT 3SM BR OVC007
     FM301500 03004KT P6SM BKN008
     FM301600 05004KT P6SM SCT008
     FM302000 11006KT P6SM SCT150=

USA.gov is the U.S. government's official web portal to all federal, state and local government web resources and services.